Time;durP1;ratioP1;P1;durP2;ratioP2;P2;SDS_P1;SDS_P2;PMS_P1;PMS_P2;Temp;Humidity;BMP_temperature;BMP_pressure;BME280_temperature;BME280_humidity;BME280_pressure;Samples;Min_cycle;Max_cycle;Signal;HPM_P1;HPM_P2
2021/10/19 00:00:11;;;;;;;;;;;12.10;99.90;12.50;100421.00;;;;344715;28;83458;-92
2021/10/19 00:00:22;;;;;;;;;;;12.20;99.90;12.50;100429.00;;;;345696;28;92098;-93
2021/10/19 00:00:34;;;;;;;;;;;12.10;99.90;12.50;100434.00;;;;345917;28;83381;-92
2021/10/19 00:00:46;;;;;;;;;;;12.20;99.90;12.50;100424.00;;;;342822;28;91865;-92
2021/10/19 00:00:59;;;;;;;;;;;12.20;99.90;12.50;100431.00;;;;344807;28;82502;-92
2021/10/19 00:01:11;;;;;;;;;;;12.20;99.90;12.40;100428.00;;;;344175;28;90354;-92
2021/10/19 00:01:23;;;;;;;;;;;12.20;99.90;12.50;100434.00;;;;342175;28;82487;-92
2021/10/19 00:01:35;;;;;;;;;;;12.20;99.90;12.40;100432.00;;;;345821;28;90735;-92
2021/10/19 00:01:48;;;;;;;;;;;12.20;99.90;12.40;100424.00;;;;343505;28;82524;-92
2021/10/19 00:02:00;;;;;;;;;;;12.20;99.90;12.40;100415.00;;;;344380;28;91696;-92
2021/10/19 00:02:12;;;;;;;;;;;12.10;99.90;12.50;100429.00;;;;343308;28;83520;-92
2021/10/19 00:02:24;;;;;;;;;;;12.10;99.90;12.50;100426.00;;;;343082;28;91362;-92
2021/10/19 00:02:36;;;;;;;;;;;12.20;99.90;12.50;100426.00;;;;342219;28;82550;-91
2021/10/19 00:02:51;;;;;;;;;;;12.20;99.90;12.50;100428.00;;;;342743;28;89134;-92
2021/10/19 00:03:03;;;;;;;;;;;12.20;99.90;12.40;100423.00;;;;344767;28;83418;-92
2021/10/19 00:03:15;;;;;;;;;;;12.20;99.90;12.50;100430.00;;;;344084;28;90721;-92
2021/10/19 00:03:28;;;;;;;;;;;12.20;99.90;12.50;100425.00;;;;344513;28;82641;-92
2021/10/19 00:03:39;;;;;;;;;;;12.20;99.90;12.50;100423.00;;;;343722;28;89670;-92
2021/10/19 00:03:51;;;;;;;;;;;12.20;99.90;12.50;100430.00;;;;342075;28;82512;-92
2021/10/19 00:04:03;;;;;;;;;;;12.20;99.90;12.40;100433.00;;;;344171;28;92372;-92
2021/10/19 00:04:15;;;;;;;;;;;12.20;99.90;12.40;100428.00;;;;340640;28;82562;-92
2021/10/19 00:04:26;;;;;;;;;;;12.20;99.90;12.40;100429.00;;;;342846;28;90332;-92
2021/10/19 00:04:38;;;;;;;;;;;12.20;99.90;12.50;100432.00;;;;343393;28;83424;-92
2021/10/19 00:04:50;;;;;;;;;;;12.20;99.90;12.50;100435.00;;;;344339;28;92053;-92
2021/10/19 00:05:03;;;;;;;;;;;12.20;99.90;12.50;100431.00;;;;343435;28;83648;-92
2021/10/19 00:05:15;;;;;;;;;;;12.20;99.90;12.50;100434.00;;;;344232;28;91326;-92
2021/10/19 00:05:27;;;;;;;;;;;12.20;99.90;12.50;100436.00;;;;344462;28;84356;-92
2021/10/19 00:05:38;;;;;;;;;;;12.20;99.90;12.50;100433.00;;;;344306;28;91735;-91
2021/10/19 00:05:50;;;;;;;;;;;12.20;99.90;12.50;100424.00;;;;346255;28;82537;-92
2021/10/19 00:06:02;;;;;;;;;;;12.10;99.90;12.60;100432.00;;;;342759;28;90432;-92
2021/10/19 00:06:14;;;;;;;;;;;12.20;99.90;12.60;100445.00;;;;343246;28;83425;-92
2021/10/19 00:06:26;;;;;;;;;;;12.20;99.90;12.70;100440.00;;;;341727;28;90163;-92
2021/10/19 00:06:38;;;;;;;;;;;12.20;99.90;12.70;100436.00;;;;342061;28;82640;-92
2021/10/19 00:06:50;;;;;;;;;;;12.20;99.90;12.60;100439.00;;;;344191;28;91318;-92
2021/10/19 00:07:02;;;;;;;;;;;12.20;99.90;12.60;100440.00;;;;342048;28;83435;-92
2021/10/19 00:07:14;;;;;;;;;;;12.20;99.90;12.60;100440.00;;;;344099;28;90853;-92
2021/10/19 00:07:26;;;;;;;;;;;12.20;99.90;12.70;100443.00;;;;342118;28;83398;-92
2021/10/19 00:07:38;;;;;;;;;;;12.20;99.90;12.70;100443.00;;;;344457;28;89546;-92
2021/10/19 00:07:50;;;;;;;;;;;12.20;99.90;12.70;100444.00;;;;344802;28;83415;-92
2021/10/19 00:08:02;;;;;;;;;;;12.20;99.90;12.70;100441.00;;;;344322;28;92381;-92
2021/10/19 00:08:14;;;;;;;;;;;12.20;99.90;12.70;100438.00;;;;342116;28;82398;-92
2021/10/19 00:08:26;;;;;;;;;;;12.20;99.90;12.50;100435.00;;;;342728;28;90516;-92
2021/10/19 00:08:38;;;;;;;;;;;12.20;99.90;12.50;100437.00;;;;341877;28;83478;-91
2021/10/19 00:08:50;;;;;;;;;;;12.20;99.90;12.50;100432.00;;;;342780;28;88486;-92
2021/10/19 00:09:03;;;;;;;;;;;12.20;99.90;12.50;100439.00;;;;343414;28;83357;-92
2021/10/19 00:09:14;;;;;;;;;;;12.20;99.90;12.60;100431.00;;;;344412;28;91374;-92
2021/10/19 00:09:26;;;;;;;;;;;12.20;99.90;12.60;100439.00;;;;340640;28;83438;-92
2021/10/19 00:09:38;;;;;;;;;;;12.20;99.90;12.60;100440.00;;;;339141;28;91523;-92
2021/10/19 00:09:50;;;;;;;;;;;12.20;99.90;12.60;100445.00;;;;342018;28;83370;-92
2021/10/19 00:10:03;;;;;;;;;;;12.20;99.90;12.70;100446.00;;;;342943;28;91364;-92
2021/10/19 00:10:15;;;;;;;;;;;12.30;99.90;12.80;100437.00;;;;343337;28;83553;-92
2021/10/19 00:10:27;;;;;;;;;;;12.30;99.90;12.80;100442.00;;;;341515;28;91499;-92
2021/10/19 00:10:38;;;;;;;;;;;12.30;99.90;12.80;100439.00;;;;344139;28;82484;-91
2021/10/19 00:10:50;;;;;;;;;;;12.30;99.90;12.80;100438.00;;;;342938;28;90328;-92
2021/10/19 00:11:02;;;;;;;;;;;12.30;99.90;12.70;100440.00;;;;343478;28;82319;-92
2021/10/19 00:11:14;;;;;;;;;;;12.30;99.90;12.70;100441.00;;;;344342;28;91721;-92
2021/10/19 00:11:25;;;;;;;;;;;12.30;99.90;12.60;100443.00;;;;344673;28;83449;-92
2021/10/19 00:11:37;;;;;;;;;;;12.30;99.90;12.60;100440.00;;;;342928;28;91709;-92
2021/10/19 00:11:49;;;;;;;;;;;12.30;99.90;12.60;100433.00;;;;342123;28;82620;-92
2021/10/19 00:12:01;;;;;;;;;;;12.30;99.90;12.60;100438.00;;;;344393;28;92920;-92
2021/10/19 00:12:12;;;;;;;;;;;12.30;99.90;12.60;100435.00;;;;342000;28;82567;-92
2021/10/19 00:12:24;;;;;;;;;;;12.30;99.90;12.60;100437.00;;;;341374;28;89511;-92
2021/10/19 00:12:37;;;;;;;;;;;12.30;99.90;12.60;100441.00;;;;342840;28;88698;-92
2021/10/19 00:12:48;;;;;;;;;;;12.30;99.90;12.60;100434.00;;;;340799;28;90066;-93
2021/10/19 00:13:00;;;;;;;;;;;12.30;99.90;12.60;100437.00;;;;342081;28;83456;-93
2021/10/19 00:13:12;;;;;;;;;;;12.20;99.90;12.60;100440.00;;;;341658;28;91241;-93
2021/10/19 00:13:24;;;;;;;;;;;12.30;99.90;12.60;100445.00;;;;344605;28;83437;-92
2021/10/19 00:13:37;;;;;;;;;;;12.30;99.90;12.60;100441.00;;;;345554;28;91289;-92
2021/10/19 00:13:48;;;;;;;;;;;12.20;99.90;12.60;100441.00;;;;343188;28;83458;-93
2021/10/19 00:14:00;;;;;;;;;;;12.30;99.90;12.60;100430.00;;;;344247;28;92438;-93
2021/10/19 00:14:12;;;;;;;;;;;12.20;99.90;12.60;100444.00;;;;344645;28;83641;-93
2021/10/19 00:14:24;;;;;;;;;;;12.20;99.90;12.60;100448.00;;;;344418;28;91604;-92
2021/10/19 00:14:36;;;;;;;;;;;12.30;99.90;12.60;100440.00;;;;343298;28;83448;-92
2021/10/19 00:14:47;;;;;;;;;;;12.30;99.90;12.50;100443.00;;;;345558;28;90443;-93
2021/10/19 00:14:59;;;;;;;;;;;12.30;99.90;12.50;100434.00;;;;343373;28;83518;-92
2021/10/19 00:15:12;;;;;;;;;;;12.30;99.90;12.50;100435.00;;;;343054;28;90240;-93
2021/10/19 00:15:24;;;;;;;;;;;12.30;99.90;12.50;100437.00;;;;342052;28;83442;-93
2021/10/19 00:15:36;;;;;;;;;;;12.20;99.90;12.50;100446.00;;;;341236;28;91722;-93
2021/10/19 00:15:48;;;;;;;;;;;12.20;99.90;12.50;100443.00;;;;341893;28;83537;-92
2021/10/19 00:15:59;;;;;;;;;;;12.20;99.90;12.50;100443.00;;;;342902;28;90010;-93
2021/10/19 00:16:11;;;;;;;;;;;12.20;99.90;12.50;100444.00;;;;341971;28;83319;-93
2021/10/19 00:16:23;;;;;;;;;;;12.20;99.90;12.50;100447.00;;;;340399;28;90677;-93
2021/10/19 00:16:35;;;;;;;;;;;12.20;99.90;12.50;100443.00;;;;341970;28;83446;-92
2021/10/19 00:16:47;;;;;;;;;;;12.20;99.90;12.50;100452.00;;;;344153;28;90647;-93
2021/10/19 00:16:59;;;;;;;;;;;12.20;99.90;12.50;100450.00;;;;342041;28;82559;-92
2021/10/19 00:17:11;;;;;;;;;;;12.20;99.90;12.50;100452.00;;;;342853;28;91446;-92
2021/10/19 00:17:23;;;;;;;;;;;12.20;99.90;12.40;100441.00;;;;341969;28;82498;-92
2021/10/19 00:17:36;;;;;;;;;;;12.20;99.90;12.30;100452.00;;;;345749;28;91351;-92
2021/10/19 00:17:48;;;;;;;;;;;12.20;99.90;12.30;100446.00;;;;343181;28;83447;-93
2021/10/19 00:18:00;;;;;;;;;;;12.20;99.90;12.30;100452.00;;;;345737;28;91346;-92
2021/10/19 00:18:12;;;;;;;;;;;12.20;99.90;12.30;100453.00;;;;345680;28;83597;-93
2021/10/19 00:18:23;;;;;;;;;;;12.20;99.90;12.20;100454.00;;;;344382;28;91284;-93
2021/10/19 00:18:35;;;;;;;;;;;12.20;99.90;12.20;100448.00;;;;341683;28;82382;-92
2021/10/19 00:18:48;;;;;;;;;;;12.20;99.90;12.20;100447.00;;;;344057;28;91446;-93
2021/10/19 00:18:59;;;;;;;;;;;12.20;99.90;12.20;100452.00;;;;346162;28;82518;-92
2021/10/19 00:19:11;;;;;;;;;;;12.10;99.90;12.10;100451.00;;;;344082;28;90728;-93
2021/10/19 00:19:23;;;;;;;;;;;12.10;99.90;12.10;100448.00;;;;341846;28;83539;-92
2021/10/19 00:19:41;;;;;;;;;;;12.10;99.90;12.00;100455.00;;;;341507;28;91110;-93
2021/10/19 00:19:53;;;;;;;;;;;12.10;99.90;12.10;100458.00;;;;343391;28;83343;-92
2021/10/19 00:20:05;;;;;;;;;;;12.00;99.90;12.10;100453.00;;;;344424;28;88974;-93
2021/10/19 00:20:17;;;;;;;;;;;12.00;99.90;12.10;100454.00;;;;343385;28;83520;-92
2021/10/19 00:20:29;;;;;;;;;;;12.00;99.90;12.10;100462.00;;;;344331;28;91731;-92
2021/10/19 00:20:41;;;;;;;;;;;12.00;99.90;12.10;100457.00;;;;343411;28;83891;-93
2021/10/19 00:20:53;;;;;;;;;;;12.00;99.90;12.10;100455.00;;;;341477;28;91905;-93
2021/10/19 00:21:05;;;;;;;;;;;12.00;99.90;12.20;100462.00;;;;342087;28;83411;-92
2021/10/19 00:21:16;;;;;;;;;;;12.00;99.90;12.20;100460.00;;;;343062;28;90485;-92
2021/10/19 00:21:28;;;;;;;;;;;12.00;99.90;12.30;100462.00;;;;344819;28;83500;-92
2021/10/19 00:21:40;;;;;;;;;;;12.00;99.90;12.30;100457.00;;;;342046;28;90634;-92
2021/10/19 00:21:51;;;;;;;;;;;12.00;99.90;12.30;100459.00;;;;344712;28;82691;-92
2021/10/19 00:22:04;;;;;;;;;;;12.00;99.90;12.30;100460.00;;;;342675;28;92671;-92
2021/10/19 00:22:16;;;;;;;;;;;12.00;99.90;12.30;100452.00;;;;342038;28;83582;-91
2021/10/19 00:22:27;;;;;;;;;;;12.00;99.90;12.30;100460.00;;;;343086;28;91033;-93
2021/10/19 00:22:40;;;;;;;;;;;12.00;99.90;12.30;100456.00;;;;343951;28;83687;-92
2021/10/19 00:22:51;;;;;;;;;;;12.00;99.90;12.30;100459.00;;;;344231;28;90641;-93
2021/10/19 00:23:03;;;;;;;;;;;12.00;99.90;12.30;100460.00;;;;344872;28;83466;-93
2021/10/19 00:23:15;;;;;;;;;;;12.00;99.90;12.30;100452.00;;;;341453;28;89195;-93
2021/10/19 00:23:27;;;;;;;;;;;12.00;99.90;12.40;100462.00;;;;342053;28;83546;-92
2021/10/19 00:23:39;;;;;;;;;;;12.00;99.90;12.40;100458.00;;;;342945;28;91508;-92
2021/10/19 00:23:51;;;;;;;;;;;12.00;99.90;12.40;100450.00;;;;344747;28;83592;-92
2021/10/19 00:24:03;;;;;;;;;;;12.00;99.90;12.40;100454.00;;;;342940;28;92438;-92
2021/10/19 00:24:14;;;;;;;;;;;12.00;99.90;12.40;100451.00;;;;342022;28;83471;-92
2021/10/19 00:24:27;;;;;;;;;;;12.00;99.90;12.40;100455.00;;;;345766;28;91950;-92
2021/10/19 00:24:39;;;;;;;;;;;12.00;99.90;12.40;100457.00;;;;346934;28;83369;-92
2021/10/19 00:24:51;;;;;;;;;;;12.00;99.90;12.40;100452.00;;;;345519;28;91689;-92
2021/10/19 00:25:06;;;;;;;;;;;12.00;99.90;12.40;100450.00;;;;344756;28;82513;-92
2021/10/19 00:25:21;;;;;;;;;;;12.00;99.90;12.50;100459.00;;;;344430;28;90230;-91
2021/10/19 00:25:33;;;;;;;;;;;12.00;99.90;12.50;100456.00;;;;344754;28;83396;-93
2021/10/19 00:25:45;;;;;;;;;;;12.00;99.90;12.50;100447.00;;;;344436;28;90462;-93
2021/10/19 00:25:57;;;;;;;;;;;12.00;99.90;12.40;100456.00;;;;342009;28;83601;-92
2021/10/19 00:26:08;;;;;;;;;;;12.00;99.90;12.40;100456.00;;;;341505;28;92371;-93
2021/10/19 00:26:20;;;;;;;;;;;12.00;99.90;12.40;100457.00;;;;344711;28;83437;-93
2021/10/19 00:26:32;;;;;;;;;;;12.00;99.90;12.40;100457.00;;;;343119;28;90381;-93
2021/10/19 00:26:44;;;;;;;;;;;12.00;99.90;12.40;100447.00;;;;345882;28;83542;-93
2021/10/19 00:26:55;;;;;;;;;;;12.00;99.90;12.50;100447.00;;;;345143;28;89636;-92
2021/10/19 00:27:07;;;;;;;;;;;12.00;99.90;12.50;100449.00;;;;343370;28;83459;-93
2021/10/19 00:27:19;;;;;;;;;;;12.00;99.90;12.60;100452.00;;;;342654;28;91588;-93
2021/10/19 00:27:33;;;;;;;;;;;12.00;99.90;12.60;100449.00;;;;344638;28;82650;-92
2021/10/19 00:27:45;;;;;;;;;;;12.00;99.90;12.60;100444.00;;;;342490;28;92168;-93
2021/10/19 00:27:57;;;;;;;;;;;12.10;99.90;12.60;100447.00;;;;341973;28;82580;-93
2021/10/19 00:28:09;;;;;;;;;;;12.10;99.90;12.60;100449.00;;;;344115;28;92344;-93
2021/10/19 00:28:21;;;;;;;;;;;12.10;99.90;12.60;100442.00;;;;342089;28;83503;-93
2021/10/19 00:28:33;;;;;;;;;;;12.10;99.90;12.50;100447.00;;;;342916;28;90490;-93
2021/10/19 00:28:44;;;;;;;;;;;12.10;99.90;12.50;100443.00;;;;343374;28;83518;-93
2021/10/19 00:28:56;;;;;;;;;;;12.10;99.90;12.40;100450.00;;;;341678;28;90405;-93
2021/10/19 00:29:08;;;;;;;;;;;12.10;99.90;12.40;100444.00;;;;344725;28;83436;-92
2021/10/19 00:29:20;;;;;;;;;;;12.10;99.90;12.50;100449.00;;;;344430;28;90574;-93
2021/10/19 00:29:32;;;;;;;;;;;12.10;99.90;12.50;100445.00;;;;341996;28;83557;-92
2021/10/19 00:29:43;;;;;;;;;;;12.10;99.90;12.60;100445.00;;;;341474;28;91319;-92
2021/10/19 00:29:55;;;;;;;;;;;12.10;99.90;12.60;100442.00;;;;343217;28;84325;-92
2021/10/19 00:30:07;;;;;;;;;;;12.10;99.90;12.60;100439.00;;;;338767;28;92482;-92
2021/10/19 00:30:20;;;;;;;;;;;12.10;99.90;12.70;100452.00;;;;342057;28;82539;-93
2021/10/19 00:30:31;;;;;;;;;;;12.10;99.90;12.70;100440.00;;;;341578;28;90605;-92
2021/10/19 00:30:43;;;;;;;;;;;12.10;99.90;12.70;100439.00;;;;342949;28;83777;-92
2021/10/19 00:30:55;;;;;;;;;;;12.10;99.90;12.70;100440.00;;;;341375;28;91594;-91
2021/10/19 00:31:07;;;;;;;;;;;12.10;99.90;12.60;100438.00;;;;342632;28;83506;-92
2021/10/19 00:31:19;;;;;;;;;;;12.10;99.90;12.60;100445.00;;;;341667;28;90452;-93
2021/10/19 00:31:36;;;;;;;;;;;12.10;99.90;12.60;100438.00;;;;343616;28;83475;-92
2021/10/19 00:31:50;;;;;;;;;;;12.10;99.90;12.50;100442.00;;;;342985;28;91476;-93
2021/10/19 00:32:01;;;;;;;;;;;12.10;99.90;12.50;100432.00;;;;340741;28;83407;-92
2021/10/19 00:32:13;;;;;;;;;;;12.10;99.90;12.50;100439.00;;;;341558;28;92524;-92
2021/10/19 00:32:25;;;;;;;;;;;12.10;99.90;12.60;100442.00;;;;343496;28;82592;-92
2021/10/19 00:32:38;;;;;;;;;;;12.10;99.90;12.60;100431.00;;;;341581;28;91813;-92
2021/10/19 00:32:50;;;;;;;;;;;12.10;99.90;12.60;100434.00;;;;341894;28;83507;-93
2021/10/19 00:33:02;;;;;;;;;;;12.10;99.90;12.60;100440.00;;;;344232;28;91652;-92
2021/10/19 00:33:14;;;;;;;;;;;12.10;99.90;12.60;100438.00;;;;344803;28;83493;-92
2021/10/19 00:33:25;;;;;;;;;;;12.10;99.90;12.50;100436.00;;;;344091;28;90428;-92
2021/10/19 00:33:37;;;;;;;;;;;12.10;99.90;12.40;100438.00;;;;342933;28;83618;-92
2021/10/19 00:33:49;;;;;;;;;;;12.10;99.90;12.40;100436.00;;;;341857;28;91138;-92
2021/10/19 00:34:01;;;;;;;;;;;12.10;99.90;12.50;100446.00;;;;342098;28;83605;-93
2021/10/19 00:34:12;;;;;;;;;;;12.10;99.90;12.50;100442.00;;;;338785;28;91315;-92
2021/10/19 00:34:24;;;;;;;;;;;12.10;99.90;12.50;100431.00;;;;341932;28;83519;-92
2021/10/19 00:34:36;;;;;;;;;;;12.10;99.90;12.50;100440.00;;;;343119;28;90595;-93
2021/10/19 00:34:48;;;;;;;;;;;12.10;99.90;12.50;100435.00;;;;343261;28;83420;-93
2021/10/19 00:34:59;;;;;;;;;;;12.10;99.90;12.50;100436.00;;;;341536;28;91354;-92
2021/10/19 00:35:11;;;;;;;;;;;12.10;99.90;12.50;100432.00;;;;343450;28;82565;-93
2021/10/19 00:35:23;;;;;;;;;;;12.10;99.90;12.60;100438.00;;;;342967;28;91493;-92
2021/10/19 00:35:35;;;;;;;;;;;12.10;99.90;12.60;100436.00;;;;344825;28;82509;-93
2021/10/19 00:35:47;;;;;;;;;;;12.10;99.90;12.60;100435.00;;;;344262;28;91346;-93
2021/10/19 00:35:58;;;;;;;;;;;12.10;99.90;12.60;100445.00;;;;341957;28;83474;-93
2021/10/19 00:36:10;;;;;;;;;;;12.10;99.90;12.60;100443.00;;;;342727;28;92337;-92
2021/10/19 00:36:22;;;;;;;;;;;12.10;99.90;12.60;100441.00;;;;341937;28;83447;-92
2021/10/19 00:36:34;;;;;;;;;;;12.10;99.90;12.50;100432.00;;;;343969;28;91596;-92
2021/10/19 00:36:46;;;;;;;;;;;12.10;99.90;12.50;100444.00;;;;343296;28;83503;-92
2021/10/19 00:36:58;;;;;;;;;;;12.10;99.90;12.50;100445.00;;;;342921;28;91471;-92
2021/10/19 00:37:09;;;;;;;;;;;12.10;99.90;12.50;100443.00;;;;345696;28;83556;-92
2021/10/19 00:37:21;;;;;;;;;;;12.10;99.90;12.40;100440.00;;;;344498;28;89100;-93
2021/10/19 00:37:33;;;;;;;;;;;12.10;99.90;12.30;100432.00;;;;341973;28;83425;-92
2021/10/19 00:37:45;;;;;;;;;;;12.10;99.90;12.30;100443.00;;;;341696;28;91500;-92
2021/10/19 00:37:56;;;;;;;;;;;12.10;99.90;12.30;100441.00;;;;344721;28;83268;-92
2021/10/19 00:38:08;;;;;;;;;;;12.10;99.90;12.30;100433.00;;;;342782;28;91514;-92
2021/10/19 00:38:20;;;;;;;;;;;12.10;99.90;12.30;100441.00;;;;342029;28;83394;-92
2021/10/19 00:38:32;;;;;;;;;;;12.10;99.90;12.30;100439.00;;;;342975;28;91525;-92
2021/10/19 00:38:44;;;;;;;;;;;12.10;99.90;12.30;100439.00;;;;340700;28;83460;-93
2021/10/19 00:38:56;;;;;;;;;;;12.00;99.90;12.20;100443.00;;;;341550;28;89336;-92
2021/10/19 00:39:08;;;;;;;;;;;12.00;99.90;12.20;100443.00;;;;341928;28;83941;-92
2021/10/19 00:39:19;;;;;;;;;;;12.00;99.90;12.20;100445.00;;;;343913;28;90759;-92
2021/10/19 00:39:31;;;;;;;;;;;12.00;99.90;12.20;100447.00;;;;343166;28;83283;-93
2021/10/19 00:39:43;;;;;;;;;;;12.00;99.90;12.20;100445.00;;;;342574;28;91265;-92
2021/10/19 00:39:55;;;;;;;;;;;12.00;99.90;12.10;100442.00;;;;343249;28;83591;-93
2021/10/19 00:40:07;;;;;;;;;;;12.00;99.90;12.20;100440.00;;;;342030;28;90062;-93
2021/10/19 00:40:19;;;;;;;;;;;12.00;99.90;12.20;100429.00;;;;341948;28;83438;-93
2021/10/19 00:40:35;;;;;;;;;;;12.00;99.90;12.20;100443.00;;;;341545;28;90091;-93
2021/10/19 00:40:47;;;;;;;;;;;12.00;99.90;12.20;100445.00;;;;343429;28;82591;-93
2021/10/19 00:40:58;;;;;;;;;;;12.00;99.90;12.20;100446.00;;;;345686;28;90302;-92
2021/10/19 00:41:12;;;;;;;;;;;12.00;99.90;12.20;100446.00;;;;343467;28;82473;-93
2021/10/19 00:41:23;;;;;;;;;;;11.90;99.90;12.10;100451.00;;;;344062;28;91551;-93
2021/10/19 00:41:35;;;;;;;;;;;11.90;99.90;12.10;100454.00;;;;343326;28;83133;-93
2021/10/19 00:41:47;;;;;;;;;;;11.90;99.90;12.00;100450.00;;;;345743;28;90626;-92
2021/10/19 00:41:59;;;;;;;;;;;11.90;99.90;12.00;100453.00;;;;346217;28;82505;-93
2021/10/19 00:42:11;;;;;;;;;;;11.90;99.90;12.00;100451.00;;;;344196;28;92246;-92
2021/10/19 00:42:23;;;;;;;;;;;11.90;99.90;12.00;100437.00;;;;344864;28;83327;-93
2021/10/19 00:42:35;;;;;;;;;;;11.90;99.90;12.00;100446.00;;;;340532;28;91345;-92
2021/10/19 00:42:47;;;;;;;;;;;11.90;99.90;12.10;100449.00;;;;341852;28;83485;-92
2021/10/19 00:42:59;;;;;;;;;;;11.90;99.90;12.10;100451.00;;;;345845;28;89110;-92
2021/10/19 00:43:10;;;;;;;;;;;11.90;99.90;12.10;100448.00;;;;345987;28;83586;-92
2021/10/19 00:43:24;;;;;;;;;;;11.90;99.90;12.10;100453.00;;;;343020;28;90406;-93
2021/10/19 00:43:38;;;;;;;;;;;11.80;99.90;12.00;100456.00;;;;343612;28;82656;-92
2021/10/19 00:43:51;;;;;;;;;;;11.80;99.90;12.00;100456.00;;;;342953;28;92093;-92
2021/10/19 00:44:03;;;;;;;;;;;11.80;99.90;12.00;100456.00;;;;343346;28;83282;-92
2021/10/19 00:44:15;;;;;;;;;;;11.80;99.90;11.90;100458.00;;;;347040;28;91483;-92
2021/10/19 00:44:27;;;;;;;;;;;11.80;99.90;11.90;100466.00;;;;343464;28;83384;-93
2021/10/19 00:44:39;;;;;;;;;;;11.80;99.90;11.90;100454.00;;;;341316;28;90798;-93
2021/10/19 00:44:51;;;;;;;;;;;11.80;99.90;11.90;100456.00;;;;343383;28;82475;-92
2021/10/19 00:45:03;;;;;;;;;;;11.70;99.90;11.90;100459.00;;;;342804;28;89131;-93
2021/10/19 00:45:15;;;;;;;;;;;11.70;99.90;11.90;100449.00;;;;345997;28;83313;-92
2021/10/19 00:45:27;;;;;;;;;;;11.70;99.90;12.00;100454.00;;;;344087;28;92074;-92
2021/10/19 00:45:39;;;;;;;;;;;11.70;99.90;12.00;100453.00;;;;342874;28;82634;-92
2021/10/19 00:45:51;;;;;;;;;;;11.70;99.90;12.00;100454.00;;;;342837;28;91573;-92
2021/10/19 00:46:02;;;;;;;;;;;11.70;99.90;12.00;100454.00;;;;342036;28;83111;-93
2021/10/19 00:46:14;;;;;;;;;;;11.70;99.90;12.00;100455.00;;;;341364;28;90698;-92
2021/10/19 00:46:26;;;;;;;;;;;11.70;99.90;12.00;100458.00;;;;342051;28;82465;-92
2021/10/19 00:46:40;;;;;;;;;;;11.70;99.90;12.00;100456.00;;;;342105;28;87952;-92
2021/10/19 00:46:52;;;;;;;;;;;11.70;99.90;12.00;100452.00;;;;343317;28;82522;-92
2021/10/19 00:47:04;;;;;;;;;;;11.70;99.90;12.10;100455.00;;;;343070;28;91818;-93
2021/10/19 00:47:20;;;;;;;;;;;11.70;99.90;12.10;100456.00;;;;343438;28;82565;-93
2021/10/19 00:47:33;;;;;;;;;;;11.70;99.90;12.10;100456.00;;;;342747;28;90570;-92
2021/10/19 00:47:51;;;;;;;;;;;11.70;99.90;12.10;100454.00;;;;342153;28;83466;-92
2021/10/19 00:48:05;;;;;;;;;;;11.70;99.90;12.00;100451.00;;;;341462;28;90426;-92
2021/10/19 00:48:18;;;;;;;;;;;11.70;99.90;12.10;100456.00;;;;344916;28;83446;-92
2021/10/19 00:48:31;;;;;;;;;;;11.70;99.90;12.10;100452.00;;;;344142;28;91614;-93
2021/10/19 00:48:46;;;;;;;;;;;11.70;99.90;12.20;100449.00;;;;339387;28;83496;-93
2021/10/19 00:48:58;;;;;;;;;;;11.70;99.90;12.20;100450.00;;;;343037;28;89055;-93
2021/10/19 00:49:10;;;;;;;;;;;11.70;99.90;12.20;100453.00;;;;343116;28;82551;-92
2021/10/19 00:49:21;;;;;;;;;;;11.70;99.90;12.30;100456.00;;;;344390;28;90516;-92
2021/10/19 00:49:33;;;;;;;;;;;11.70;99.90;12.20;100452.00;;;;344783;28;83454;-93
2021/10/19 00:49:49;;;;;;;;;;;11.70;99.90;12.30;100455.00;;;;341666;28;89768;-92
2021/10/19 00:50:01;;;;;;;;;;;11.80;99.90;12.30;100448.00;;;;343494;28;83285;-92
2021/10/19 00:50:13;;;;;;;;;;;11.80;99.90;12.30;100446.00;;;;342782;28;91889;-92
2021/10/19 00:50:25;;;;;;;;;;;11.80;99.90;12.30;100444.00;;;;340699;28;82562;-92
2021/10/19 00:50:36;;;;;;;;;;;11.80;99.90;12.30;100445.00;;;;341558;28;91216;-92
2021/10/19 00:50:48;;;;;;;;;;;11.80;99.90;12.40;100445.00;;;;343582;28;82442;-92
2021/10/19 00:51:00;;;;;;;;;;;11.80;99.90;12.30;100447.00;;;;341637;28;91491;-93
2021/10/19 00:51:12;;;;;;;;;;;11.80;99.90;12.40;100447.00;;;;341986;28;83426;-93
2021/10/19 00:51:24;;;;;;;;;;;11.80;99.90;12.30;100453.00;;;;342933;28;91804;-93
2021/10/19 00:51:36;;;;;;;;;;;11.80;99.90;12.30;100440.00;;;;345709;28;82495;-92
2021/10/19 00:51:48;;;;;;;;;;;11.80;99.90;12.40;100446.00;;;;341460;28;91815;-93
2021/10/19 00:52:00;;;;;;;;;;;11.90;99.90;12.40;100446.00;;;;344769;28;82476;-93
2021/10/19 00:52:13;;;;;;;;;;;11.80;99.90;12.30;100449.00;;;;344041;28;92192;-92
2021/10/19 00:52:25;;;;;;;;;;;11.80;99.90;12.30;100451.00;;;;346128;28;82475;-93
2021/10/19 00:52:36;;;;;;;;;;;11.80;99.90;12.30;100448.00;;;;344184;28;92286;-93
2021/10/19 00:52:48;;;;;;;;;;;11.80;99.90;12.30;100456.00;;;;344801;28;82519;-92
2021/10/19 00:53:02;;;;;;;;;;;11.80;99.90;12.30;100443.00;;;;343066;28;87826;-92
2021/10/19 00:53:14;;;;;;;;;;;11.90;99.90;12.20;100444.00;;;;344894;28;82417;-92
2021/10/19 00:53:25;;;;;;;;;;;11.80;99.90;12.20;100450.00;;;;342758;28;90674;-92
2021/10/19 00:53:38;;;;;;;;;;;11.80;99.90;12.20;100443.00;;;;341914;28;83618;-92
2021/10/19 00:53:50;;;;;;;;;;;11.80;99.90;12.20;100448.00;;;;342987;28;90398;-92
2021/10/19 00:54:02;;;;;;;;;;;11.80;99.90;12.20;100443.00;;;;344788;28;83396;-92
2021/10/19 00:54:14;;;;;;;;;;;11.80;99.90;12.30;100442.00;;;;342952;28;91489;-92
2021/10/19 00:54:26;;;;;;;;;;;11.80;99.90;12.40;100442.00;;;;343416;28;83443;-92
2021/10/19 00:54:37;;;;;;;;;;;11.80;99.90;12.40;100439.00;;;;343163;28;92344;-92
2021/10/19 00:54:49;;;;;;;;;;;11.80;99.90;12.40;100436.00;;;;341966;28;83501;-93
2021/10/19 00:55:03;;;;;;;;;;;11.90;99.90;12.30;100442.00;;;;341565;28;91584;-93
2021/10/19 00:55:15;;;;;;;;;;;11.80;99.90;12.30;100437.00;;;;343360;28;83496;-92
2021/10/19 00:55:28;;;;;;;;;;;11.90;99.90;12.40;100446.00;;;;344282;28;90254;-93
2021/10/19 00:55:40;;;;;;;;;;;11.90;99.90;12.40;100440.00;;;;345455;28;83510;-93
2021/10/19 00:55:52;;;;;;;;;;;11.90;99.90;12.40;100436.00;;;;342903;28;91616;-92
2021/10/19 00:56:05;;;;;;;;;;;11.90;99.90;12.40;100443.00;;;;343384;28;83552;-93
2021/10/19 00:56:17;;;;;;;;;;;11.90;99.90;12.40;100445.00;;;;344268;28;91496;-92
2021/10/19 00:56:29;;;;;;;;;;;11.90;99.90;12.30;100441.00;;;;344879;28;82398;-93
2021/10/19 00:56:41;;;;;;;;;;;11.90;99.90;12.30;100442.00;;;;342959;28;92558;-93
2021/10/19 00:56:53;;;;;;;;;;;11.90;99.90;12.30;100443.00;;;;341966;28;82639;-93
2021/10/19 00:57:05;;;;;;;;;;;11.90;99.90;12.30;100446.00;;;;341716;28;90331;-92
2021/10/19 00:57:16;;;;;;;;;;;11.90;99.90;12.30;100447.00;;;;343417;28;83381;-93
2021/10/19 00:57:28;;;;;;;;;;;11.90;99.90;12.20;100441.00;;;;344265;28;91441;-92
2021/10/19 00:57:40;;;;;;;;;;;11.90;99.90;12.20;100440.00;;;;343001;28;83700;-92
2021/10/19 00:57:52;;;;;;;;;;;11.90;99.90;12.20;100437.00;;;;343494;28;89053;-92
2021/10/19 00:58:05;;;;;;;;;;;11.90;99.90;12.20;100430.00;;;;341718;28;83478;-93
2021/10/19 00:58:17;;;;;;;;;;;11.90;99.90;12.20;100441.00;;;;342535;28;89111;-92
2021/10/19 00:58:29;;;;;;;;;;;11.80;99.90;12.10;100441.00;;;;342090;28;82592;-93
2021/10/19 00:58:41;;;;;;;;;;;11.80;99.90;12.20;100439.00;;;;342780;28;91417;-92
2021/10/19 00:58:52;;;;;;;;;;;11.80;99.90;12.10;100442.00;;;;343271;28;82452;-92
2021/10/19 00:59:05;;;;;;;;;;;11.80;99.90;12.10;100441.00;;;;340329;28;90519;-92
2021/10/19 00:59:17;;;;;;;;;;;11.80;99.90;12.10;100442.00;;;;340552;28;83479;-93